Flight Track Log - Related Links

Times and Time Zones

All times are in EDT time to prevent confusion due to time zone crossing. See the RPA3253 flight status page for this flight to view local times or setup timezone preferences in your user account.

Time Position Orientation Groundspeed Altitude Reporting Facility
EDT Latitude Longitude Course Direction KTS MPH feet Rate Location/Type
Sun 10:37:57 PM 35.1956 -80.9533 179° South 153 176 1,400  Level Atlanta Center
Sun 10:38:52 PM 35.1494 -80.9525 179° South 184 212 2,600 2,016 Climbing Atlanta Center
Sun 10:39:59 PM 35.0922 -81.0028 216° Southwest 270 311 5,500 2,523 Climbing Atlanta Center
Sun 10:40:20 PM 35.0933 -81.0383 272° West 272 313 6,300 2,400 Climbing Atlanta Center
Sun 10:40:59 PM 35.0925 -81.0967 269° West 289 333 7,900 2,500 Climbing Atlanta Center
Sun 10:41:20 PM 35.1019 -81.1369 286° West 288 331 8,800 2,679 Climbing Atlanta Center
Sun 10:41:55 PM 35.1153 -81.1747 293° West 294 338 10,400 2,900 Climbing Atlanta Center
Sun 10:42:20 PM 35.1206 -81.2278 277° West 289 333 11,700 2,667 Climbing Atlanta Center
Sun 10:42:49 PM 35.1089 -81.2611 247° West 295 339 12,800 2,300 Climbing Atlanta Center
Sun 10:43:20 PM 35.0828 -81.3053 234° Southwest 325 374 14,000 989 Climbing Atlanta Center
Sun 10:44:20 PM 35.0536 -81.4025 250° West 335 386 14,300 1,450 Climbing Atlanta Center
Sun 10:45:20 PM 35.0225 -81.5100 251° West 340 391 16,900 2,300 Climbing Atlanta Center
Sun 10:46:20 PM 34.9892 -81.6175 249° West 345 397 18,900 1,950 Climbing Atlanta Center
Sun 10:47:20 PM 34.9558 -81.7300 250° West 350 403 20,800 1,700 Climbing Atlanta Center
Sun 10:48:20 PM 34.9139 -81.8375 245° Southwest 355 409 22,300 1,550 Climbing Atlanta Center
Sun 10:49:20 PM 34.8492 -81.9506 235° Southwest 368 423 23,900 1,400 Climbing Atlanta Center
Sun 10:50:20 PM 34.7883 -82.0583 236° Southwest 373 429 25,100 1,250 Climbing Atlanta Center
Sun 10:51:20 PM 34.7275 -82.1633 235° Southwest 386 444 26,400 1,200 Climbing Atlanta Center
Sun 10:52:20 PM 34.6664 -82.2708 235° Southwest 386 444 27,500 1,050 Climbing Atlanta Center
Sun 10:53:20 PM 34.6033 -82.3858 236° Southwest 398 458 28,500 850 Climbing Atlanta Center
Sun 10:54:20 PM 34.5381 -82.4981 235° Southwest 405 466 29,200 950 Climbing Atlanta Center
Sun 10:55:20 PM 34.4725 -82.6000 232° Southwest 412 474 30,400 1,100 Climbing Atlanta Center
Sun 10:56:20 PM 34.4092 -82.7144 236° Southwest 417 480 31,400 900 Climbing Atlanta Center
Sun 10:57:20 PM 34.3433 -82.8261 234° Southwest 417 480 32,200 850 Climbing Atlanta Center
Sun 10:58:20 PM 34.2797 -82.9453 237° Southwest 417 480 33,100 900 Climbing Atlanta Center
Sun 10:59:20 PM 34.2139 -83.0567 234° Southwest 417 480 34,000 450 Climbing Atlanta Center
Sun 11:00:20 PM 34.1481 -83.1678 234° Southwest 417 480 34,000  Level Atlanta Center
Sun 11:01:20 PM 34.0842 -83.2789 235° Southwest 412 474 34,000  Level Atlanta Center
Sun 11:02:20 PM 34.0097 -83.4022 234° Southwest 412 474 34,000 350 Level Atlanta Center
Sun 11:03:20 PM 33.9433 -83.5131 234° Southwest 412 474 34,700 700 Climbing Atlanta Center
Sun 11:04:20 PM 33.8792 -83.6233 235° Southwest 406 467 35,400 550 Climbing Atlanta Center
Sun 11:05:20 PM 33.8128 -83.7364 235° Southwest 406 467 35,800 300 Climbing Atlanta Center
Sun 11:06:20 PM 33.7481 -83.8439 234° Southwest 406 467 36,000 100 Climbing Atlanta Center
Sun 11:07:20 PM 33.6814 -83.9564 235° Southwest 406 467 36,000  Level Atlanta Center
Sun 11:08:20 PM 33.6147 -84.0661 234° Southwest 406 467 36,000  Level Atlanta Center
Sun 11:09:20 PM 33.5561 -84.1633 234° Southwest 406 467 36,000  Level Atlanta Center
Sun 11:10:20 PM 33.4872 -84.2753 234° Southwest 406 467 36,000  Level Atlanta Center
Sun 11:11:20 PM 33.4222 -84.3872 235° Southwest 411 473 36,000  Level Atlanta Center
Sun 11:12:20 PM 33.3550 -84.4989 234° Southwest 411 473 36,000  Level Atlanta Center
Sun 11:13:20 PM 33.2814 -84.6228 235° Southwest 417 480 36,000  Level Atlanta Center
Sun 11:14:20 PM 33.2119 -84.7367 234° Southwest 425 489 36,000  Level Atlanta Center
Sun 11:15:20 PM 33.1444 -84.8475 234° Southwest 420 483 36,000  Level Atlanta Center
Sun 11:16:20 PM 33.0792 -84.9586 235° Southwest 420 483 36,000  Level Atlanta Center
Sun 11:17:20 PM 33.0114 -85.0644 233° Southwest 415 478 36,000  Level Atlanta Center
Sun 11:18:20 PM 32.9436 -85.1725 233° Southwest 415 478 36,000  Level Atlanta Center
Sun 11:19:20 PM 32.8739 -85.2806 232° Southwest 410 472 36,000  Level Atlanta Center
Sun 11:20:20 PM 32.8036 -85.3906 233° Southwest 410 472 36,000  Level Atlanta Center
Sun 11:21:20 PM 32.7356 -85.5056 235° Southwest 416 479 36,000  Level Atlanta Center
Sun 11:22:20 PM 32.6653 -85.6181 233° Southwest 421 484 36,000  Level Atlanta Center
Sun 11:23:20 PM 32.5950 -85.7300 233° Southwest 433 498 36,000  Level Atlanta Center
Sun 11:24:20 PM 32.5267 -85.8422 234° Southwest 428 493 36,000  Level Atlanta Center
Sun 11:25:20 PM 32.4603 -85.9467 233° Southwest 448 516 36,000  Level Atlanta Center
Sun 11:26:20 PM 32.3875 -86.0583 232° Southwest 441 507 36,000  Level Atlanta Center
Sun 11:27:20 PM 32.3211 -86.1675 234° Southwest 422 486 36,000  Level Atlanta Center
Sun 11:28:20 PM 32.2461 -86.2786 231° Southwest 422 486 36,000  Level Atlanta Center
Sun 11:29:20 PM 32.1750 -86.3897 233° Southwest 428 493 36,000  Level Atlanta Center
Sun 11:30:20 PM 32.0978 -86.5053 232° Southwest 422 486 36,000  Level Atlanta Center
Sun 11:31:20 PM 32.0225 -86.6108 230° Southwest 422 486 36,000  Level Atlanta Center
Sun 11:32:20 PM 31.9497 -86.7019 227° Southwest 428 493 36,000  Level Atlanta Center
Sun 11:33:20 PM 31.8722 -86.8072 229° Southwest 433 498 36,000  Level Atlanta Center
Sun 11:34:20 PM 31.7944 -86.9147 230° Southwest 433 498 36,000  Level Atlanta Center
Sun 11:35:20 PM 31.7211 -87.0175 230° Southwest 428 493 36,000  Level Atlanta Center
Sun 11:36:20 PM 31.6411 -87.1319 231° Southwest 422 486 36,000  Level Atlanta Center
Sun 11:36:53 PM 31.5939 -87.1886 226° Southwest 422 486 36,000  Level Houston Center
Sun 11:37:54 PM 31.5192 -87.2903 229° Southwest 413 475 36,000  Level Houston Center
Sun 11:38:55 PM 31.4444 -87.3917 229° Southwest 412 474 36,000  Level Houston Center
Sun 11:39:55 PM 31.3686 -87.4936 229° Southwest 415 478 36,000  Level Houston Center
Sun 11:40:56 PM 31.2944 -87.5967 230° Southwest 415 478 36,000  Level Houston Center
Sun 11:41:57 PM 31.2189 -87.6992 229° Southwest 415 478 36,000  Level Houston Center
Sun 11:42:58 PM 31.1514 -87.7897 229° Southwest 418 481 36,000  Level Houston Center
Sun 11:43:58 PM 31.0614 -87.9108 229° Southwest 414 476 36,000  Level Houston Center
Sun 11:44:59 PM 30.9847 -88.0119 229° Southwest 415 478 36,000  Level Houston Center
Sun 11:46:00 PM 30.9072 -88.1128 228° Southwest 417 480 36,000  Level Houston Center
Sun 11:47:00 PM 30.8311 -88.2136 229° Southwest 417 480 36,000  Level Houston Center
Sun 11:48:01 PM 30.7581 -88.3133 230° Southwest 407 468 36,000  Level Houston Center
Sun 11:49:02 PM 30.6967 -88.4206 236° Southwest 406 467 36,000  Level Houston Center
Sun 11:50:02 PM 30.6436 -88.5392 243° Southwest 411 473 36,000 -893 Level Houston Center
Sun 11:51:03 PM 30.5925 -88.6550 243° Southwest 406 467 34,200 -2,164 Descending Houston Center
Sun 11:52:04 PM 30.5397 -88.7733 243° Southwest 409 471 31,600 -2,579 Descending Houston Center
Sun 11:53:04 PM 30.4853 -88.8936 242° Southwest 418 481 29,000 -2,579 Descending Houston Center
Sun 11:54:05 PM 30.4356 -89.0111 244° Southwest 412 474 26,400 -2,508 Descending Houston Center
Sun 11:55:06 PM 30.3881 -89.1233 244° Southwest 397 457 23,900 -2,488 Descending Houston Center
Sun 11:55:27 PM 30.3714 -89.1703 248° West 387 445 23,000 -2,300 Descending Houston Center
Sun 11:56:06 PM 30.3472 -89.2358 247° West 385 443 21,600 -2,418 Descending Houston Center
Sun 11:56:34 PM 30.3261 -89.3003 249° West 366 421 20,300 -2,262 Descending Houston Center
Sun 11:57:07 PM 30.3086 -89.3419 244° Southwest 368 423 19,300 -2,066 Descending Houston Center
Sun 11:57:35 PM 30.2881 -89.4033 249° West 347 399 18,200 -1,770 Descending Houston Center
Sun 11:58:08 PM 30.2747 -89.4450 250° West 349 402 17,500 -1,700 Descending Houston Center
Sun 11:58:35 PM 30.2625 -89.5058 257° West 329 379 16,500 -1,800 Descending Houston Center
Sun 11:59:08 PM 30.2531 -89.5486 256° West 333 383 15,700 -1,791 Descending Houston Center
Sun 11:59:42 PM 30.2375 -89.6225 256° West 324 373 14,500 -1,672 Descending Houston Center
Mon 12:00:09 AM 30.2294 -89.6506 252° West 328 377 14,000 -1,700 Descending Houston Center
Mon 12:00:42 AM 30.2136 -89.7197 255° West 311 358 12,800 -2,066 Descending Houston Center
Mon 12:01:10 AM 30.2078 -89.7453 255° West 306 352 11,900 -2,754 Descending Houston Center
Mon 12:01:43 AM 30.1939 -89.8097 256° West 296 341 10,000 -2,300 Descending Houston Center
Mon 12:02:10 AM 30.1856 -89.8406 253° West 302 348 9,600 -1,574 Descending Houston Center
Mon 12:02:44 AM 30.1717 -89.9022 255° West 295 339 8,400 -1,869 Descending Houston Center
Mon 12:03:11 AM 30.1658 -89.9314 257° West 293 337 7,700 -2,000 Descending Houston Center
Mon 12:03:44 AM 30.1517 -89.9894 254° West 284 327 6,400 -1,967 Descending Houston Center
Mon 12:04:12 AM 30.1453 -90.0192 256° West 285 328 5,700 -1,855 Descending Houston Center
Mon 12:04:39 AM 30.1333 -90.0697 255° West 278 320 4,700 -1,200 Descending Houston Center
Mon 12:05:12 AM 30.1264 -90.1036 257° West 279 321 4,500 -800 Descending Houston Center
Mon 12:05:39 AM 30.1169 -90.1450 255° West 230 265 3,900 -885 Descending Houston Center
Mon 12:06:13 AM 30.1122 -90.1744 260° West 248 285 3,600 -1,180 Descending Houston Center
Mon 12:06:40 AM 30.1042 -90.2056 253° West 177 204 2,700 -1,574 Descending Houston Center
Mon 12:07:14 AM 30.0917 -90.2186 222° Southwest 204 235 2,000 -1,180 Descending Houston Center
Mon 12:07:41 AM 30.0672 -90.2261 195° South 146 168 1,500 -900 Descending Houston Center
Mon 12:08:14 AM 30.0539 -90.2314 199° South 162 186 1,100 -800 Descending Houston Center
Mon 12:08:41 AM 30.0300 -90.2372 192° South 122 140 700 -689 Descending Houston Center
Mon 12:09:15 AM 30.0194 -90.2417 200° South 142 163 400 -529 Descending Houston Center

Login

Don't have an account? Register now (free) for customized features, flight alerts, and more!